LFOB/BVA METAR and TAF weather

Enter ICAO airport designator
Station Type Date Time Source
LFOB METAR 2020/04/08 21:30 UTC NOAA

LFOB 082130Z AUTO 31002KT CAVOK 11/06 Q1023


Station Type Date Time Source
LFOB Decoded METAR 2020/04/08 21:30 UTC NOAA

Beauvais, France (LFOB) 49-28N 002-07E 111M
Apr 08, 2020 - 05:30 PM EDT / 2020.04.08 2130 UTC
Wind: from the NW (310 degrees) at 2 MPH (2 KT):0
Visibility: greater than 7 mile(s):0
Temperature: 51 F (11 C)
Dew Point: 42 F (6 C)
Relative Humidity: 71%
Pressure (altimeter): 30.21 in. Hg (1023 hPa)
ob: LFOB 082130Z AUTO 31002KT CAVOK 11/06 Q1023
cycle: 21

Station Type Date Time Source
LFOB TAF 2020/04/03 04:15 UTC NOAA

TAF LFOB 030400Z 0304/0324 CNL

Example: see airport list